Time;durP1;ratioP1;P1;durP2;ratioP2;P2;SDS_P1;SDS_P2;PMS_P1;PMS_P2;Temp;Humidity;BMP_temperature;BMP_pressure;BME280_temperature;BME280_humidity;BME280_pressure;Samples;Min_cycle;Max_cycle;Signal;HPM_P1;HPM_P2
2023/05/25 00:00:08;;;;;;;;;;;10.60;99.90;;;;;;5043120;28;19927;-66
2023/05/25 00:02:36;;;;;;;;;;;10.60;99.90;;;;;;5024537;28;19996;-70
2023/05/25 00:05:03;;;;;;;;;;;10.50;99.90;;;;;;5022828;28;20077;-67
2023/05/25 00:07:30;;;;;;;;;;;10.50;99.90;;;;;;5022345;28;19921;-68
2023/05/25 00:09:57;;;;;;;;;;;10.50;99.90;;;;;;5023250;28;19944;-67
2023/05/25 00:12:24;;;;;;;;;;;10.50;99.90;;;;;;5022657;28;19993;-67
2023/05/25 00:14:50;;;;;;;;;;;10.50;99.90;;;;;;5023180;28;19944;-66
2023/05/25 00:17:17;;;;;;;;;;;10.50;99.90;;;;;;5025908;28;19952;-68
2023/05/25 00:19:45;;;;;;;;;;;10.50;99.90;;;;;;5026740;28;19921;-68
2023/05/25 00:22:12;;;;;;;;;;;10.50;99.90;;;;;;5009037;28;19928;-66
2023/05/25 00:24:39;;;;;;;;;;;10.50;99.90;;;;;;5025533;28;19927;-67
2023/05/25 00:27:06;;;;;;;;;;;10.50;99.90;;;;;;5025646;28;20221;-67
2023/05/25 00:29:33;;;;;;;;;;;10.50;99.90;;;;;;5026347;28;19925;-67
2023/05/25 00:31:59;;;;;;;;;;;10.50;99.90;;;;;;5011741;28;20000;-67
2023/05/25 00:34:26;;;;;;;;;;;10.50;99.90;;;;;;5025517;28;19976;-67
2023/05/25 00:36:54;;;;;;;;;;;10.50;99.90;;;;;;5026032;28;20254;-68
2023/05/25 00:39:21;;;;;;;;;;;10.50;99.90;;;;;;5025154;28;19927;-67
2023/05/25 00:41:48;;;;;;;;;;;10.50;99.90;;;;;;5026305;28;20086;-67
2023/05/25 00:44:20;;;;;;;;;;;10.50;99.90;;;;;;5013789;28;19922;-68
2023/05/25 00:46:47;;;;;;;;;;;10.50;99.90;;;;;;5025193;28;19921;-67
2023/05/25 00:49:15;;;;;;;;;;;10.50;99.90;;;;;;5026258;28;20127;-66
2023/05/25 00:51:45;;;;;;;;;;;10.50;99.90;;;;;;5026078;28;19964;-68
2023/05/25 00:54:14;;;;;;;;;;;10.60;99.90;;;;;;5025717;28;19922;-68
2023/05/25 00:56:44;;;;;;;;;;;10.50;99.90;;;;;;5024924;28;19971;-67
2023/05/25 00:59:11;;;;;;;;;;;10.50;99.90;;;;;;5025706;28;20213;-67
2023/05/25 01:01:39;;;;;;;;;;;10.50;99.90;;;;;;5025853;28;19922;-67
2023/05/25 01:04:06;;;;;;;;;;;10.40;99.90;;;;;;5025267;28;19921;-66
2023/05/25 01:06:33;;;;;;;;;;;10.50;99.90;;;;;;5024398;28;19993;-66
2023/05/25 01:09:03;;;;;;;;;;;10.50;99.90;;;;;;5025253;28;19922;-67
2023/05/25 01:11:34;;;;;;;;;;;10.50;99.90;;;;;;5025600;28;19922;-67
2023/05/25 01:14:01;;;;;;;;;;;10.40;99.90;;;;;;5025222;28;19928;-70
2023/05/25 01:16:28;;;;;;;;;;;10.40;99.90;;;;;;5023890;28;20112;-67
2023/05/25 01:18:55;;;;;;;;;;;10.30;99.90;;;;;;5025438;28;20001;-68
2023/05/25 01:21:25;;;;;;;;;;;10.30;99.90;;;;;;5025151;28;19928;-67
2023/05/25 01:23:55;;;;;;;;;;;10.30;99.90;;;;;;5025580;28;19921;-67
2023/05/25 01:26:23;;;;;;;;;;;10.30;99.90;;;;;;5024817;28;19959;-66
2023/05/25 01:28:51;;;;;;;;;;;10.20;99.90;;;;;;5022414;28;19922;-67
2023/05/25 01:31:20;;;;;;;;;;;10.20;99.90;;;;;;5024201;28;20001;-67
2023/05/25 01:33:47;;;;;;;;;;;10.20;99.90;;;;;;5025386;28;19959;-66
2023/05/25 01:36:14;;;;;;;;;;;10.20;99.90;;;;;;5025074;28;19921;-67
2023/05/25 01:38:42;;;;;;;;;;;10.20;99.90;;;;;;5024543;28;20228;-67
2023/05/25 01:41:09;;;;;;;;;;;10.10;99.90;;;;;;5024814;28;19921;-67
2023/05/25 01:43:35;;;;;;;;;;;10.10;99.90;;;;;;5024792;28;19992;-67
2023/05/25 01:46:09;;;;;;;;;;;10.10;99.90;;;;;;5024663;28;19988;-67
2023/05/25 01:48:40;;;;;;;;;;;10.10;99.90;;;;;;5025070;28;20313;-67
2023/05/25 01:51:09;;;;;;;;;;;10.20;99.90;;;;;;5004428;28;20210;-67
2023/05/25 01:53:37;;;;;;;;;;;10.10;99.90;;;;;;5004735;28;20227;-67
2023/05/25 01:56:07;;;;;;;;;;;10.10;99.90;;;;;;5004902;28;20149;-67
2023/05/25 01:58:35;;;;;;;;;;;10.10;99.90;;;;;;5021241;28;19925;-67
2023/05/25 02:01:02;;;;;;;;;;;10.10;99.90;;;;;;5024280;28;19928;-67
2023/05/25 02:03:28;;;;;;;;;;;10.10;99.90;;;;;;5023971;28;19992;-66
2023/05/25 02:05:56;;;;;;;;;;;10.10;99.90;;;;;;5024269;28;20216;-67
2023/05/25 02:08:23;;;;;;;;;;;10.00;99.90;;;;;;5024327;28;19921;-67
2023/05/25 02:10:49;;;;;;;;;;;10.00;99.90;;;;;;5024347;28;19984;-67
2023/05/25 02:13:17;;;;;;;;;;;10.00;99.90;;;;;;5024182;28;19960;-67
2023/05/25 02:15:44;;;;;;;;;;;10.10;99.90;;;;;;5023979;28;19922;-66
2023/05/25 02:18:12;;;;;;;;;;;10.00;99.90;;;;;;5024199;28;19988;-68
2023/05/25 02:20:39;;;;;;;;;;;10.00;99.90;;;;;;5024066;28;19927;-66
2023/05/25 02:23:05;;;;;;;;;;;10.00;99.90;;;;;;5023054;28;19964;-68
2023/05/25 02:25:32;;;;;;;;;;;9.90;99.90;;;;;;5004696;28;19921;-67
2023/05/25 02:27:59;;;;;;;;;;;9.90;99.90;;;;;;5018498;28;20172;-67
2023/05/25 02:30:27;;;;;;;;;;;9.90;99.90;;;;;;5023944;28;19948;-66
2023/05/25 02:32:55;;;;;;;;;;;9.80;99.90;;;;;;5023373;28;19927;-67
2023/05/25 02:35:22;;;;;;;;;;;9.80;99.90;;;;;;5023679;28;19921;-67
2023/05/25 02:37:48;;;;;;;;;;;9.70;99.90;;;;;;5022854;28;19929;-67
2023/05/25 02:40:15;;;;;;;;;;;9.80;99.90;;;;;;5022833;28;19921;-67
2023/05/25 02:42:42;;;;;;;;;;;9.70;99.90;;;;;;5023366;28;20282;-69
2023/05/25 02:45:10;;;;;;;;;;;9.60;99.90;;;;;;5003930;28;19993;-66
2023/05/25 02:47:38;;;;;;;;;;;9.60;99.90;;;;;;5003762;28;19922;-66
2023/05/25 02:50:05;;;;;;;;;;;9.60;99.90;;;;;;5004488;28;19944;-67
2023/05/25 02:52:31;;;;;;;;;;;9.60;99.90;;;;;;5003775;28;20001;-67
2023/05/25 02:54:58;;;;;;;;;;;9.50;99.90;;;;;;5021943;28;19988;-67
2023/05/25 02:57:25;;;;;;;;;;;9.50;99.90;;;;;;5023448;28;19984;-66
2023/05/25 02:59:52;;;;;;;;;;;9.50;99.90;;;;;;5023978;28;19921;-67
2023/05/25 03:02:19;;;;;;;;;;;9.50;99.90;;;;;;5023770;28;20089;-66
2023/05/25 03:04:48;;;;;;;;;;;9.50;99.90;;;;;;5023605;28;20161;-67
2023/05/25 03:07:15;;;;;;;;;;;9.40;99.90;;;;;;5023037;28;20114;-67
2023/05/25 03:09:41;;;;;;;;;;;9.40;99.90;;;;;;5023862;28;19921;-67
2023/05/25 03:12:08;;;;;;;;;;;9.40;99.90;;;;;;5023468;28;19964;-67
2023/05/25 03:14:35;;;;;;;;;;;9.30;99.90;;;;;;5023588;28;19928;-68
2023/05/25 03:17:01;;;;;;;;;;;9.30;99.90;;;;;;5022673;28;20251;-68
2023/05/25 03:19:28;;;;;;;;;;;9.20;99.90;;;;;;5023774;28;19988;-68
2023/05/25 03:21:56;;;;;;;;;;;9.20;99.90;;;;;;5023741;28;19989;-70
2023/05/25 03:24:22;;;;;;;;;;;9.20;99.90;;;;;;5023146;28;19922;-67
2023/05/25 03:26:49;;;;;;;;;;;9.20;99.90;;;;;;5023337;28;19957;-69
2023/05/25 03:29:16;;;;;;;;;;;9.10;99.90;;;;;;5023648;28;19928;-68
2023/05/25 03:31:43;;;;;;;;;;;9.10;99.90;;;;;;5023738;28;19948;-67
2023/05/25 03:34:09;;;;;;;;;;;9.10;99.90;;;;;;5022902;28;19993;-68
2023/05/25 03:36:37;;;;;;;;;;;9.20;99.90;;;;;;5022923;28;19959;-67
2023/05/25 03:39:06;;;;;;;;;;;9.20;99.90;;;;;;5023321;28;19988;-68
2023/05/25 03:41:38;;;;;;;;;;;9.20;99.90;;;;;;5023488;28;19921;-67
2023/05/25 03:44:05;;;;;;;;;;;9.20;99.90;;;;;;5022793;28;20272;-67
2023/05/25 03:46:31;;;;;;;;;;;9.20;99.90;;;;;;5021676;28;19921;-67
2023/05/25 03:48:58;;;;;;;;;;;9.20;99.90;;;;;;5023128;28;20284;-68
2023/05/25 03:51:26;;;;;;;;;;;9.20;99.90;;;;;;5025920;28;19921;-67
2023/05/25 03:53:53;;;;;;;;;;;9.20;99.90;;;;;;5026810;28;19921;-67
2023/05/25 03:56:21;;;;;;;;;;;9.20;99.90;;;;;;5026806;28;19921;-67
2023/05/25 03:58:48;;;;;;;;;;;9.10;99.90;;;;;;5026877;28;19921;-67
2023/05/25 04:01:15;;;;;;;;;;;9.20;99.90;;;;;;5027093;28;19988;-68
2023/05/25 04:03:42;;;;;;;;;;;9.20;99.90;;;;;;5026686;28;19922;-68
2023/05/25 04:06:08;;;;;;;;;;;9.10;99.90;;;;;;5026704;28;19922;-67
2023/05/25 04:08:35;;;;;;;;;;;9.10;99.90;;;;;;5026917;28;20024;-67
2023/05/25 04:11:02;;;;;;;;;;;9.00;99.90;;;;;;5026745;28;19989;-66
2023/05/25 04:13:53;;;;;;;;;;;9.00;99.90;;;;;;5026733;28;19996;-67
2023/05/25 04:16:21;;;;;;;;;;;9.00;99.90;;;;;;5072179;23;20000;-70
2023/05/25 04:18:48;;;;;;;;;;;9.10;99.90;;;;;;5073573;28;19920;-70
2023/05/25 04:21:15;;;;;;;;;;;9.00;99.90;;;;;;5078586;28;20361;-72
2023/05/25 04:23:42;;;;;;;;;;;9.00;99.90;;;;;;5086551;28;19988;-71
2023/05/25 04:26:09;;;;;;;;;;;9.10;99.90;;;;;;5069677;28;19925;-71
2023/05/25 04:28:36;;;;;;;;;;;9.20;99.90;;;;;;5066316;28;19928;-71
2023/05/25 04:31:04;;;;;;;;;;;9.30;99.90;;;;;;5066560;28;19946;-69
2023/05/25 04:33:33;;;;;;;;;;;9.30;99.90;;;;;;5066262;28;19925;-70
2023/05/25 04:35:59;;;;;;;;;;;9.40;99.90;;;;;;5065018;28;19943;-71
2023/05/25 04:38:26;;;;;;;;;;;9.50;99.90;;;;;;5065845;28;20162;-70
2023/05/25 04:40:53;;;;;;;;;;;9.50;99.90;;;;;;5066257;28;19984;-70
2023/05/25 04:43:20;;;;;;;;;;;9.60;99.90;;;;;;5066177;28;19967;-69
2023/05/25 04:45:47;;;;;;;;;;;9.60;99.90;;;;;;5062441;28;19984;-70
2023/05/25 04:48:13;;;;;;;;;;;9.60;99.90;;;;;;5058573;28;19920;-69
2023/05/25 04:50:41;;;;;;;;;;;9.70;99.90;;;;;;5065931;28;20168;-70
2023/05/25 04:53:08;;;;;;;;;;;9.70;99.90;;;;;;5064020;28;19964;-70
2023/05/25 04:55:34;;;;;;;;;;;9.80;99.90;;;;;;5076901;28;19920;-69
2023/05/25 04:58:05;;;;;;;;;;;9.80;99.90;;;;;;5064040;28;19956;-69
2023/05/25 05:00:33;;;;;;;;;;;9.90;99.90;;;;;;5064382;28;19924;-70
2023/05/25 05:03:00;;;;;;;;;;;9.90;99.90;;;;;;5064606;28;19921;-71
2023/05/25 05:05:27;;;;;;;;;;;10.00;99.90;;;;;;5075699;28;19924;-70
2023/05/25 05:07:55;;;;;;;;;;;10.00;99.90;;;;;;5071041;28;19920;-70
2023/05/25 05:10:21;;;;;;;;;;;10.00;99.90;;;;;;5065723;28;20168;-70
2023/05/25 05:12:48;;;;;;;;;;;10.00;99.90;;;;;;5065392;28;19960;-70
2023/05/25 05:15:15;;;;;;;;;;;10.00;99.90;;;;;;5064828;28;19927;-70
2023/05/25 05:17:41;;;;;;;;;;;10.10;99.90;;;;;;5064651;28;20165;-70
2023/05/25 05:20:08;;;;;;;;;;;10.20;99.90;;;;;;5065153;28;19921;-70
2023/05/25 05:22:37;;;;;;;;;;;10.30;99.90;;;;;;5065441;28;20271;-70
2023/05/25 05:25:06;;;;;;;;;;;10.40;99.90;;;;;;5065045;28;20192;-70
2023/05/25 05:27:32;;;;;;;;;;;10.40;99.90;;;;;;5064713;28;20154;-70
2023/05/25 05:29:59;;;;;;;;;;;10.40;99.90;;;;;;5064806;28;19920;-70
2023/05/25 05:32:26;;;;;;;;;;;10.50;99.90;;;;;;5064729;28;19927;-71
2023/05/25 05:34:52;;;;;;;;;;;10.50;99.90;;;;;;5057632;28;19984;-71
2023/05/25 05:37:19;;;;;;;;;;;10.60;99.90;;;;;;5044992;28;19972;-72
2023/05/25 05:39:45;;;;;;;;;;;10.70;99.90;;;;;;5044932;28;19988;-71
2023/05/25 05:42:13;;;;;;;;;;;10.80;99.90;;;;;;5045141;28;19986;-70
2023/05/25 05:44:40;;;;;;;;;;;10.90;99.90;;;;;;5048881;28;19927;-74
2023/05/25 05:47:07;;;;;;;;;;;10.90;99.90;;;;;;5064417;28;20291;-72
2023/05/25 05:49:34;;;;;;;;;;;11.00;99.90;;;;;;5064828;28;19920;-71
2023/05/25 05:52:00;;;;;;;;;;;11.00;99.90;;;;;;5064127;28;19920;-70
2023/05/25 05:54:27;;;;;;;;;;;11.00;99.90;;;;;;5065181;28;19927;-71
2023/05/25 05:56:54;;;;;;;;;;;11.10;99.90;;;;;;5084148;28;19927;-71
2023/05/25 05:59:23;;;;;;;;;;;11.20;99.90;;;;;;5083427;28;20170;-71
2023/05/25 06:01:50;;;;;;;;;;;11.20;99.90;;;;;;5084848;28;20171;-71
2023/05/25 06:04:17;;;;;;;;;;;11.30;99.90;;;;;;5084379;28;19921;-70
2023/05/25 06:06:44;;;;;;;;;;;11.30;99.90;;;;;;5052955;28;19959;-71
2023/05/25 06:09:11;;;;;;;;;;;11.40;99.90;;;;;;5044678;28;20093;-71
2023/05/25 06:11:38;;;;;;;;;;;11.30;99.90;;;;;;5044751;28;19988;-70
2023/05/25 06:14:05;;;;;;;;;;;11.30;99.90;;;;;;5043977;28;19921;-70
2023/05/25 06:16:33;;;;;;;;;;;11.30;99.90;;;;;;5048165;28;19961;-71
2023/05/25 06:19:00;;;;;;;;;;;11.30;99.90;;;;;;5044132;28;19984;-70
2023/05/25 06:21:26;;;;;;;;;;;11.30;99.90;;;;;;5044516;28;20230;-71
2023/05/25 06:23:53;;;;;;;;;;;11.30;99.90;;;;;;5044440;28;19988;-71
2023/05/25 06:26:20;;;;;;;;;;;11.30;99.90;;;;;;5049132;28;20373;-72
2023/05/25 06:28:47;;;;;;;;;;;11.30;99.90;;;;;;5064219;28;19928;-71
2023/05/25 06:31:14;;;;;;;;;;;11.30;99.90;;;;;;5064167;28;20164;-71
2023/05/25 06:33:42;;;;;;;;;;;11.40;99.90;;;;;;5064435;28;19928;-71
2023/05/25 06:36:09;;;;;;;;;;;11.40;99.90;;;;;;5063677;28;19928;-72
2023/05/25 06:38:36;;;;;;;;;;;11.50;99.90;;;;;;5063771;28;20003;-71
2023/05/25 06:41:04;;;;;;;;;;;11.60;99.90;;;;;;5063872;28;19927;-71
2023/05/25 06:43:31;;;;;;;;;;;11.60;99.90;;;;;;5063990;28;19928;-71
2023/05/25 06:45:57;;;;;;;;;;;11.70;99.90;;;;;;5068797;28;20215;-71
2023/05/25 06:48:24;;;;;;;;;;;11.80;99.90;;;;;;5071336;28;19955;-70
2023/05/25 06:50:52;;;;;;;;;;;11.80;99.90;;;;;;5063812;28;19992;-70
2023/05/25 06:53:18;;;;;;;;;;;11.90;99.90;;;;;;5063759;28;19920;-70
2023/05/25 06:55:45;;;;;;;;;;;12.00;99.90;;;;;;5063447;28;19955;-73
2023/05/25 06:58:12;;;;;;;;;;;12.10;99.90;;;;;;5063460;28;19921;-72
2023/05/25 07:00:39;;;;;;;;;;;12.10;99.90;;;;;;5062550;28;20212;-72
2023/05/25 07:03:05;;;;;;;;;;;12.20;99.90;;;;;;5063776;28;20141;-70
2023/05/25 07:05:32;;;;;;;;;;;12.30;99.90;;;;;;5063440;28;19955;-70
2023/05/25 07:08:01;;;;;;;;;;;12.30;99.90;;;;;;5060612;28;19988;-71
2023/05/25 07:10:27;;;;;;;;;;;12.40;99.90;;;;;;5063200;28;19952;-71
2023/05/25 07:12:54;;;;;;;;;;;12.40;99.90;;;;;;5063493;28;19987;-71
2023/05/25 07:15:21;;;;;;;;;;;12.50;99.90;;;;;;5063176;28;19921;-70
2023/05/25 07:17:48;;;;;;;;;;;12.60;99.90;;;;;;5062732;28;19928;-71
2023/05/25 07:20:15;;;;;;;;;;;12.60;99.90;;;;;;5062523;28;19927;-71
2023/05/25 07:22:42;;;;;;;;;;;12.70;99.90;;;;;;5063117;28;20230;-71
2023/05/25 07:25:10;;;;;;;;;;;12.70;99.90;;;;;;5065201;28;20243;-71
2023/05/25 07:27:37;;;;;;;;;;;12.80;99.90;;;;;;5066965;28;19924;-71
2023/05/25 07:30:06;;;;;;;;;;;12.80;99.90;;;;;;5065930;28;19952;-71
2023/05/25 07:32:33;;;;;;;;;;;12.80;99.90;;;;;;5067339;28;19948;-72
2023/05/25 07:35:00;;;;;;;;;;;12.90;99.90;;;;;;5066891;28;20296;-72
2023/05/25 07:37:26;;;;;;;;;;;13.00;99.90;;;;;;5083735;28;19983;-71
2023/05/25 07:39:53;;;;;;;;;;;13.10;99.90;;;;;;5079626;28;19988;-73
2023/05/25 07:42:21;;;;;;;;;;;13.10;99.90;;;;;;5067264;28;19983;-71
2023/05/25 07:44:48;;;;;;;;;;;13.20;99.90;;;;;;5064122;28;19927;-71
2023/05/25 07:47:14;;;;;;;;;;;13.40;99.90;;;;;;5068085;28;19927;-71
2023/05/25 07:49:42;;;;;;;;;;;13.50;99.90;;;;;;5048405;28;19988;-71
2023/05/25 07:52:09;;;;;;;;;;;13.60;99.90;;;;;;5066065;28;20308;-70
2023/05/25 07:54:38;;;;;;;;;;;13.70;99.90;;;;;;5066530;28;20326;-71
2023/05/25 07:57:06;;;;;;;;;;;13.80;99.90;;;;;;5064646;28;19928;-71
2023/05/25 07:59:35;;;;;;;;;;;13.90;99.90;;;;;;5066853;28;19928;-71
2023/05/25 08:02:01;;;;;;;;;;;14.00;99.90;;;;;;5066089;28;19920;-70
2023/05/25 08:04:28;;;;;;;;;;;14.00;99.90;;;;;;5066548;28;19921;-71
2023/05/25 08:06:55;;;;;;;;;;;14.10;99.90;;;;;;5066125;28;20119;-70
2023/05/25 08:09:29;;;;;;;;;;;14.10;99.90;;;;;;5064617;28;20262;-71
2023/05/25 08:11:56;;;;;;;;;;;14.20;99.90;;;;;;5064393;28;19921;-71
2023/05/25 08:14:23;;;;;;;;;;;14.30;99.90;;;;;;5066583;28;19984;-71
2023/05/25 08:16:52;;;;;;;;;;;14.40;99.90;;;;;;5066336;28;19953;-71
2023/05/25 08:19:22;;;;;;;;;;;14.50;99.90;;;;;;5066573;28;19952;-71
2023/05/25 08:21:48;;;;;;;;;;;14.60;99.90;;;;;;5066227;28;19924;-71
2023/05/25 08:24:15;;;;;;;;;;;14.80;99.90;;;;;;5066100;28;19988;-70
2023/05/25 08:26:42;;;;;;;;;;;14.90;99.90;;;;;;5074515;28;20226;-71
2023/05/25 08:29:08;;;;;;;;;;;15.00;99.90;;;;;;5086253;28;19927;-70
2023/05/25 08:31:36;;;;;;;;;;;15.10;99.90;;;;;;5086034;28;20168;-70
2023/05/25 08:34:03;;;;;;;;;;;15.20;99.90;;;;;;5086044;28;20176;-71
2023/05/25 08:36:33;;;;;;;;;;;15.30;99.90;;;;;;5084928;28;19920;-70
2023/05/25 08:38:59;;;;;;;;;;;15.30;99.90;;;;;;5086512;28;20338;-71
2023/05/25 08:41:26;;;;;;;;;;;15.40;99.90;;;;;;5086348;28;19951;-72
2023/05/25 08:43:53;;;;;;;;;;;15.40;99.90;;;;;;5067289;28;20116;-71
2023/05/25 08:46:27;;;;;;;;;;;15.50;99.90;;;;;;5064297;28;19920;-74
2023/05/25 08:48:55;;;;;;;;;;;15.50;99.90;;;;;;5065989;28;20263;-71
2023/05/25 08:51:23;;;;;;;;;;;15.60;99.90;;;;;;5065920;28;19960;-71
2023/05/25 08:53:51;;;;;;;;;;;15.70;99.90;;;;;;5064827;28;19920;-71
2023/05/25 08:56:19;;;;;;;;;;;15.70;99.90;;;;;;5064605;28;19920;-70
2023/05/25 08:58:51;;;;;;;;;;;15.70;99.90;;;;;;5065922;28;19921;-71
2023/05/25 09:01:19;;;;;;;;;;;15.70;99.90;;;;;;5065742;28;19920;-71
2023/05/25 09:03:46;;;;;;;;;;;15.80;99.90;;;;;;5065365;28;19927;-71
2023/05/25 09:06:13;;;;;;;;;;;15.90;99.90;;;;;;5064888;28;19971;-71
2023/05/25 09:08:44;;;;;;;;;;;16.00;99.90;;;;;;5063963;28;19921;-72
2023/05/25 09:11:11;;;;;;;;;;;16.20;99.90;;;;;;5065274;28;20279;-71
2023/05/25 09:13:38;;;;;;;;;;;16.20;99.90;;;;;;5065291;28;19956;-71
2023/05/25 09:16:05;;;;;;;;;;;16.30;99.90;;;;;;5064340;28;19975;-71
2023/05/25 09:18:31;;;;;;;;;;;16.40;99.90;;;;;;5065059;28;19956;-70
2023/05/25 09:20:58;;;;;;;;;;;16.50;99.90;;;;;;5065272;28;19959;-70
2023/05/25 09:23:24;;;;;;;;;;;16.60;99.90;;;;;;5065161;28;19956;-70
2023/05/25 09:25:53;;;;;;;;;;;16.70;99.90;;;;;;5064721;28;19921;-71
2023/05/25 09:28:20;;;;;;;;;;;16.80;99.90;;;;;;5084788;28;19920;-70
2023/05/25 09:30:47;;;;;;;;;;;16.80;99.90;;;;;;5085243;28;20142;-70
2023/05/25 09:33:16;;;;;;;;;;;16.80;99.90;;;;;;5085247;28;19983;-71
2023/05/25 09:35:43;;;;;;;;;;;16.80;99.90;;;;;;5084612;28;20212;-72
2023/05/25 09:38:12;;;;;;;;;;;16.90;99.90;;;;;;5084791;28;19927;-70
2023/05/25 09:40:39;;;;;;;;;;;17.00;99.90;;;;;;5085136;28;19988;-71
2023/05/25 09:43:07;;;;;;;;;;;17.10;99.90;;;;;;5084101;28;20304;-70
2023/05/25 09:45:34;;;;;;;;;;;17.10;99.90;;;;;;5084480;28;19920;-69
2023/05/25 09:48:01;;;;;;;;;;;17.20;99.90;;;;;;5065944;28;19959;-71
2023/05/25 09:50:28;;;;;;;;;;;17.20;99.90;;;;;;5064746;28;19921;-71
2023/05/25 09:52:56;;;;;;;;;;;17.20;99.90;;;;;;5052009;28;19980;-70
2023/05/25 09:55:23;;;;;;;;;;;17.30;99.90;;;;;;5056667;28;19988;-71
2023/05/25 09:57:52;;;;;;;;;;;17.30;99.90;;;;;;5064603;28;19921;-71
2023/05/25 10:00:21;;;;;;;;;;;17.40;99.90;;;;;;5064490;28;19920;-70
2023/05/25 10:02:48;;;;;;;;;;;17.50;99.90;;;;;;5063950;28;20208;-71
2023/05/25 10:05:15;;;;;;;;;;;17.60;99.90;;;;;;5063325;28;19988;-71
2023/05/25 10:07:45;;;;;;;;;;;17.60;99.90;;;;;;5062361;28;19928;-71
2023/05/25 10:10:14;;;;;;;;;;;17.70;99.90;;;;;;5064531;28;19921;-71
2023/05/25 10:12:40;;;;;;;;;;;17.80;99.90;;;;;;5060147;28;19921;-71
2023/05/25 10:15:09;;;;;;;;;;;17.90;99.90;;;;;;5043008;28;19921;-71
2023/05/25 10:17:40;;;;;;;;;;;18.10;99.90;;;;;;5043846;28;19953;-71
2023/05/25 10:20:07;;;;;;;;;;;18.20;99.90;;;;;;5044194;28;20271;-71
2023/05/25 10:22:39;;;;;;;;;;;18.30;99.90;;;;;;5049457;28;20112;-71
2023/05/25 10:25:08;;;;;;;;;;;18.40;99.90;;;;;;5064187;28;19920;-72
2023/05/25 10:27:38;;;;;;;;;;;18.40;99.90;;;;;;5063922;28;19929;-71
2023/05/25 10:30:06;;;;;;;;;;;18.50;99.90;;;;;;5064373;28;19921;-72
2023/05/25 10:32:33;;;;;;;;;;;18.50;99.90;;;;;;5064203;28;19920;-72
2023/05/25 10:35:01;;;;;;;;;;;18.70;99.90;;;;;;5063476;28;20127;-71
2023/05/25 10:37:29;;;;;;;;;;;18.70;99.90;;;;;;5063302;28;19920;-71
2023/05/25 10:39:56;;;;;;;;;;;18.90;99.90;;;;;;5063650;28;20140;-71
2023/05/25 10:42:23;;;;;;;;;;;19.00;99.90;;;;;;5064313;28;19927;-72
2023/05/25 10:44:50;;;;;;;;;;;19.20;99.90;;;;;;5063161;28;19921;-71
2023/05/25 10:47:17;;;;;;;;;;;19.40;99.90;;;;;;5072159;28;19920;-71
2023/05/25 10:52:56;;;;;;;;;;;19.60;99.90;;;;;;5083945;28;19931;-71
2023/05/25 10:55:26;;;;;;;;;;;19.70;99.90;;;;;;5082922;28;19998;-71
2023/05/25 10:58:09;;;;;;;;;;;19.80;99.90;;;;;;5071729;28;19920;-71
2023/05/25 11:00:35;;;;;;;;;;;20.00;99.90;;;;;;5063085;28;19931;-71
2023/05/25 11:03:03;;;;;;;;;;;20.00;99.90;;;;;;5063027;28;20224;-71
2023/05/25 11:05:30;;;;;;;;;;;20.00;99.90;;;;;;5063695;28;19921;-71
2023/05/25 11:08:01;;;;;;;;;;;20.10;99.90;;;;;;5074476;28;19995;-71
2023/05/25 11:10:41;;;;;;;;;;;20.20;99.90;;;;;;5076883;28;20290;-71
2023/05/25 11:13:26;;;;;;;;;;;20.30;99.90;;;;;;5062597;28;19921;-71
2023/05/25 11:16:07;;;;;;;;;;;20.30;99.90;;;;;;5063089;28;19921;-70
2023/05/25 11:18:37;;;;;;;;;;;20.40;99.90;;;;;;5063158;28;20394;-72
2023/05/25 11:21:11;;;;;;;;;;;20.40;99.90;;;;;;5063150;28;19925;-70
2023/05/25 11:23:52;;;;;;;;;;;20.40;99.90;;;;;;5063089;28;19987;-71
2023/05/25 11:26:20;;;;;;;;;;;20.50;99.90;;;;;;5062484;28;20003;-70
2023/05/25 11:28:47;;;;;;;;;;;20.70;99.90;;;;;;5081260;28;19921;-70
2023/05/25 11:31:14;;;;;;;;;;;20.70;99.90;;;;;;5062817;28;19952;-69
2023/05/25 11:33:43;;;;;;;;;;;20.90;99.90;;;;;;5060654;28;20063;-70
2023/05/25 11:36:11;;;;;;;;;;;20.90;99.90;;;;;;5062342;28;19920;-70
2023/05/25 11:38:44;;;;;;;;;;;21.00;99.90;;;;;;5062697;28;19959;-70
2023/05/25 11:41:20;;;;;;;;;;;21.00;99.90;;;;;;5056062;28;19928;-72
2023/05/25 11:46:50;;;;;;;;;;;21.40;99.90;;;;;;5073889;28;20157;-71
2023/05/25 11:49:20;;;;;;;;;;;21.50;99.90;;;;;;5072707;28;19921;-71
2023/05/25 11:55:34;;;;;;;;;;;21.70;99.90;;;;;;4963636;28;19925;-70
2023/05/25 11:58:02;;;;;;;;;;;22.00;99.90;;;;;;5000687;28;19929;-71
2023/05/25 12:00:30;;;;;;;;;;;22.00;99.90;;;;;;5035106;28;19928;-71
2023/05/25 12:02:56;;;;;;;;;;;22.10;99.90;;;;;;5042912;28;19921;-71
2023/05/25 12:05:23;;;;;;;;;;;22.00;99.90;;;;;;5042626;28;19987;-71
2023/05/25 12:07:50;;;;;;;;;;;22.10;99.90;;;;;;5041971;28;19960;-71
2023/05/25 12:10:17;;;;;;;;;;;22.10;99.90;;;;;;5042814;28;19985;-71
2023/05/25 12:12:44;;;;;;;;;;;22.20;99.90;;;;;;5045894;28;19997;-71
2023/05/25 12:15:13;;;;;;;;;;;22.30;99.90;;;;;;5043469;28;19960;-71
2023/05/25 12:17:43;;;;;;;;;;;22.40;99.90;;;;;;5045888;28;19921;-72
2023/05/25 12:20:11;;;;;;;;;;;22.50;99.90;;;;;;5046180;28;19984;-71
2023/05/25 12:22:38;;;;;;;;;;;22.50;99.90;;;;;;5046316;28;19920;-71
2023/05/25 12:25:06;;;;;;;;;;;22.70;99.90;;;;;;5043282;28;19921;-71
2023/05/25 12:27:33;;;;;;;;;;;22.70;99.90;;;;;;5053297;28;20280;-73
2023/05/25 12:30:07;;;;;;;;;;;22.80;99.90;;;;;;5065137;28;20102;-71
2023/05/25 12:32:36;;;;;;;;;;;22.80;99.90;;;;;;5066292;28;19943;-71
2023/05/25 12:35:03;;;;;;;;;;;22.80;99.90;;;;;;5065821;28;19967;-70
2023/05/25 12:37:30;;;;;;;;;;;23.00;99.90;;;;;;5065308;28;19921;-71
2023/05/25 12:39:57;;;;;;;;;;;23.30;99.90;;;;;;5064940;28;19984;-69
2023/05/25 12:42:29;;;;;;;;;;;23.20;99.90;;;;;;5052522;28;19925;-71
2023/05/25 12:44:57;;;;;;;;;;;23.40;99.90;;;;;;5046185;28;19927;-71
2023/05/25 12:47:27;;;;;;;;;;;23.40;99.90;;;;;;5062144;28;20208;-71
2023/05/25 12:50:10;;;;;;;;;;;23.50;99.90;;;;;;5050818;28;19921;-71
2023/05/25 12:52:37;;;;;;;;;;;23.50;99.90;;;;;;5045763;28;19925;-71
2023/05/25 12:55:18;;;;;;;;;;;23.60;99.90;;;;;;5044695;28;21477;-71
2023/05/25 12:57:45;;;;;;;;;;;23.80;99.90;;;;;;5053148;28;19920;-69
2023/05/25 13:00:13;;;;;;;;;;;23.60;99.90;;;;;;5054728;28;19928;-70
2023/05/25 13:02:43;;;;;;;;;;;23.60;99.90;;;;;;5045353;28;20253;-70
2023/05/25 13:05:18;;;;;;;;;;;23.60;99.90;;;;;;5066800;28;19988;-71
2023/05/25 13:07:44;;;;;;;;;;;23.90;99.90;;;;;;5085056;28;19926;-70
2023/05/25 13:10:12;;;;;;;;;;;23.90;99.90;;;;;;5082587;28;19921;-71
2023/05/25 13:12:40;;;;;;;;;;;23.80;99.90;;;;;;5069116;28;19927;-70
2023/05/25 13:15:07;;;;;;;;;;;23.80;99.90;;;;;;5045007;28;19925;-70
2023/05/25 13:17:34;;;;;;;;;;;23.80;99.90;;;;;;5044610;28;20163;-71
2023/05/25 13:20:01;;;;;;;;;;;24.10;99.90;;;;;;5044332;28;19988;-71
2023/05/25 13:22:29;;;;;;;;;;;24.30;99.90;;;;;;5044950;28;19947;-71
2023/05/25 13:24:55;;;;;;;;;;;24.40;99.90;;;;;;5047497;28;20250;-70
2023/05/25 13:27:22;;;;;;;;;;;24.60;99.90;;;;;;5084669;28;19932;-70
2023/05/25 13:29:52;;;;;;;;;;;24.70;99.90;;;;;;5067263;28;20217;-71
2023/05/25 13:32:19;;;;;;;;;;;24.70;99.90;;;;;;5044780;28;19927;-70
2023/05/25 13:34:45;;;;;;;;;;;24.80;99.90;;;;;;5051074;28;19921;-71
2023/05/25 13:37:12;;;;;;;;;;;24.80;99.90;;;;;;5073939;28;19991;-70
2023/05/25 13:39:40;;;;;;;;;;;25.00;99.90;;;;;;5084130;28;20263;-70
2023/05/25 13:42:07;;;;;;;;;;;25.10;99.90;;;;;;5073029;28;19927;-69
2023/05/25 13:44:34;;;;;;;;;;;24.80;99.90;;;;;;5064743;28;20111;-68
2023/05/25 13:47:01;;;;;;;;;;;24.80;99.90;;;;;;5064100;28;19927;-71
2023/05/25 13:49:27;;;;;;;;;;;24.90;99.90;;;;;;5064440;28;20115;-69
2023/05/25 13:51:54;;;;;;;;;;;24.80;99.90;;;;;;5064447;28;19984;-70
2023/05/25 13:54:22;;;;;;;;;;;24.70;99.90;;;;;;5063252;28;20224;-70
2023/05/25 13:56:50;;;;;;;;;;;24.80;99.90;;;;;;5051142;28;19920;-70
2023/05/25 13:59:16;;;;;;;;;;;25.00;99.90;;;;;;5064452;28;19956;-69
2023/05/25 14:01:43;;;;;;;;;;;25.30;99.90;;;;;;5063970;28;19921;-69
2023/05/25 14:04:10;;;;;;;;;;;25.50;99.90;;;;;;5063210;28;19987;-69
2023/05/25 14:06:37;;;;;;;;;;;25.40;99.90;;;;;;5078164;28;20219;-69
2023/05/25 14:09:03;;;;;;;;;;;25.60;99.90;;;;;;5084088;28;19920;-70
2023/05/25 14:11:30;;;;;;;;;;;25.80;99.90;;;;;;5084286;28;20170;-71
2023/05/25 14:13:58;;;;;;;;;;;25.80;99.90;;;;;;5066261;28;19984;-69
2023/05/25 14:16:25;;;;;;;;;;;25.80;99.80;;;;;;5063177;28;19991;-69
2023/05/25 14:18:51;;;;;;;;;;;25.90;98.90;;;;;;5063722;28;19928;-70
2023/05/25 14:21:18;;;;;;;;;;;25.90;99.10;;;;;;5063154;28;20270;-71
2023/05/25 14:23:45;;;;;;;;;;;25.80;98.40;;;;;;5062154;28;19991;-71
2023/05/25 14:26:13;;;;;;;;;;;25.80;98.90;;;;;;5061479;28;19963;-70
2023/05/25 14:28:40;;;;;;;;;;;25.60;98.50;;;;;;5064209;28;19921;-70
2023/05/25 14:31:08;;;;;;;;;;;25.60;98.80;;;;;;5056718;28;19983;-70